Time;durP1;ratioP1;P1;durP2;ratioP2;P2;SDS_P1;SDS_P2;PMS_P1;PMS_P2;Temp;Humidity;BMP_temperature;BMP_pressure;BME280_temperature;BME280_humidity;BME280_pressure;Samples;Min_cycle;Max_cycle;Signal;HPM_P1;HPM_P2
2022/04/20 00:02:00;;;;;;;8.93;6.85;;;15.50;99.90;;;;;;5131646;27;20027;-72
2022/04/20 00:04:26;;;;;;;10.00;7.22;;;15.50;99.90;;;;;;5131036;27;20034;-72
2022/04/20 00:06:51;;;;;;;9.23;7.28;;;15.30;99.90;;;;;;5131457;27;20031;-72
2022/04/20 00:09:17;;;;;;;8.30;6.65;;;15.30;99.90;;;;;;5131688;27;20558;-72
2022/04/20 00:11:43;;;;;;;8.57;6.95;;;15.20;99.90;;;;;;5132103;27;20027;-73
2022/04/20 00:14:09;;;;;;;9.70;7.20;;;15.20;99.90;;;;;;5119661;28;20482;-72
2022/04/20 00:16:34;;;;;;;9.18;6.93;;;15.10;99.90;;;;;;5122944;28;20062;-72
2022/04/20 00:19:00;;;;;;;9.70;6.82;;;15.30;99.90;;;;;;5131105;27;20059;-72
2022/04/20 00:21:26;;;;;;;8.68;6.43;;;15.30;99.90;;;;;;5131818;27;20023;-72
2022/04/20 00:23:54;;;;;;;11.23;6.97;;;15.40;99.90;;;;;;5116168;28;20020;-72
2022/04/20 00:26:20;;;;;;;9.63;6.47;;;15.40;99.90;;;;;;5129157;28;20023;-73
2022/04/20 00:28:45;;;;;;;9.40;6.95;;;15.40;99.90;;;;;;5122793;28;20568;-72
2022/04/20 00:31:11;;;;;;;10.18;6.18;;;15.40;99.90;;;;;;5119327;28;20027;-72
2022/04/20 00:33:37;;;;;;;12.18;6.78;;;15.50;99.90;;;;;;5131045;27;20038;-72
2022/04/20 00:36:04;;;;;;;12.48;8.00;;;15.60;99.90;;;;;;5116652;27;20031;-73
2022/04/20 00:38:30;;;;;;;10.95;8.23;;;15.30;99.90;;;;;;5130491;28;20565;-72
2022/04/20 00:40:56;;;;;;;14.35;9.38;;;15.00;99.90;;;;;;5131809;27;20264;-72
2022/04/20 00:43:22;;;;;;;15.93;10.27;;;14.80;99.90;;;;;;5131223;27;20512;-72
2022/04/20 00:45:50;;;;;;;13.23;9.60;;;14.60;99.90;;;;;;5131511;28;20485;-72
2022/04/20 00:48:17;;;;;;;12.98;10.07;;;14.80;99.90;;;;;;5131465;27;20027;-72
2022/04/20 00:50:43;;;;;;;14.00;10.15;;;15.10;99.90;;;;;;5131674;27;20493;-72
2022/04/20 00:53:09;;;;;;;16.80;9.98;;;15.10;99.90;;;;;;5131368;28;20042;-72
2022/04/20 00:55:35;;;;;;;13.38;10.93;;;15.00;99.90;;;;;;5131221;27;20058;-72
2022/04/20 00:58:00;;;;;;;15.25;10.30;;;15.10;99.90;;;;;;5131269;28;20028;-72
2022/04/20 01:00:27;;;;;;;14.05;10.77;;;14.90;99.90;;;;;;5118020;28;20024;-72
2022/04/20 01:02:54;;;;;;;17.42;10.30;;;14.90;99.90;;;;;;5115518;28;20059;-72
2022/04/20 01:05:21;;;;;;;14.48;10.45;;;14.80;99.90;;;;;;5129033;28;20027;-72
2022/04/20 01:07:47;;;;;;;13.07;9.75;;;14.60;99.90;;;;;;5131132;28;20113;-72
2022/04/20 01:10:13;;;;;;;12.07;10.05;;;14.60;99.90;;;;;;5130849;27;20123;-72
2022/04/20 01:12:45;;;;;;;16.30;10.20;;;14.70;99.90;;;;;;5112996;28;20126;-72
2022/04/20 01:15:12;;;;;;;16.50;10.88;;;14.40;99.90;;;;;;5128049;27;20027;-72
2022/04/20 01:17:38;;;;;;;14.27;10.07;;;14.40;99.90;;;;;;5134167;27;20106;-72
2022/04/20 01:20:12;;;;;;;13.07;10.48;;;14.50;99.90;;;;;;5134553;27;20047;-72
2022/04/20 01:22:38;;;;;;;16.10;10.20;;;14.60;99.90;;;;;;5134923;27;20023;-71
2022/04/20 01:25:04;;;;;;;13.68;10.52;;;14.70;99.90;;;;;;5135153;27;20443;-72
2022/04/20 01:27:30;;;;;;;15.60;10.70;;;14.80;99.90;;;;;;5134794;27;20102;-72
2022/04/20 01:29:56;;;;;;;15.45;10.75;;;14.60;99.90;;;;;;5135097;27;20576;-72
2022/04/20 01:32:22;;;;;;;15.10;10.90;;;14.60;99.90;;;;;;5134100;27;20054;-72
2022/04/20 01:34:47;;;;;;;17.33;11.38;;;14.60;99.90;;;;;;5134327;27;20058;-72
2022/04/20 01:37:16;;;;;;;16.40;11.02;;;14.40;99.90;;;;;;5135092;27;20107;-72
2022/04/20 01:39:41;;;;;;;15.02;10.32;;;14.30;99.90;;;;;;5118011;27;20062;-72
2022/04/20 01:42:08;;;;;;;14.90;10.82;;;14.20;99.90;;;;;;5134890;27;20477;-72
2022/04/20 01:44:34;;;;;;;13.70;9.63;;;14.30;99.90;;;;;;5134293;27;20035;-72
2022/04/20 01:46:59;;;;;;;14.10;10.00;;;14.50;99.90;;;;;;5134006;27;20030;-72
2022/04/20 01:49:25;;;;;;;12.88;10.00;;;14.70;99.90;;;;;;5133972;27;20031;-72
2022/04/20 01:51:51;;;;;;;14.82;9.45;;;14.80;99.90;;;;;;5134163;27;20031;-72
2022/04/20 01:54:18;;;;;;;13.45;9.98;;;14.80;99.90;;;;;;5118489;27;20023;-72
2022/04/20 01:56:48;;;;;;;14.80;10.48;;;14.90;99.90;;;;;;5133621;27;20129;-72
2022/04/20 01:59:15;;;;;;;14.60;9.35;;;14.90;99.90;;;;;;5128636;27;20141;-72
2022/04/20 02:04:25;;;;;;;15.43;9.38;;;14.90;99.90;;;;;;5134313;27;20034;-72
2022/04/20 02:06:51;;;;;;;12.90;8.90;;;14.90;99.90;;;;;;5134608;27;20401;-72
2022/04/20 02:09:17;;;;;;;12.80;8.93;;;15.00;99.90;;;;;;5134088;27;20031;-72
2022/04/20 02:11:43;;;;;;;15.20;9.13;;;15.00;99.90;;;;;;5134049;27;20019;-72
2022/04/20 02:14:08;;;;;;;14.63;9.70;;;15.00;99.90;;;;;;5133922;27;20034;-72
2022/04/20 02:16:34;;;;;;;12.15;9.13;;;15.00;99.90;;;;;;5133618;27;20058;-72
2022/04/20 02:19:00;;;;;;;12.48;9.18;;;15.10;99.90;;;;;;5133520;27;20118;-72
2022/04/20 02:21:26;;;;;;;14.27;9.82;;;15.00;99.90;;;;;;5133662;27;20406;-72
2022/04/20 02:23:52;;;;;;;15.10;9.60;;;15.00;99.90;;;;;;5134249;27;20027;-72
2022/04/20 02:26:18;;;;;;;16.27;9.50;;;15.00;99.90;;;;;;5133745;27;20031;-72
2022/04/20 02:28:45;;;;;;;14.35;9.52;;;15.00;99.90;;;;;;5132309;27;20490;-72
2022/04/20 02:31:11;;;;;;;13.13;9.25;;;15.00;99.90;;;;;;5133746;27;20102;-72
2022/04/20 02:33:37;;;;;;;16.50;10.45;;;14.90;99.90;;;;;;5116702;27;20181;-72
2022/04/20 02:36:03;;;;;;;19.30;10.27;;;14.90;99.90;;;;;;5133974;27;20027;-72
2022/04/20 02:38:29;;;;;;;18.42;9.95;;;14.80;99.90;;;;;;5133401;27;20058;-73
2022/04/20 02:40:56;;;;;;;14.15;9.45;;;14.70;99.90;;;;;;5133568;27;20027;-72
2022/04/20 02:43:22;;;;;;;11.77;9.32;;;14.60;99.90;;;;;;5132920;27;20015;-72
2022/04/20 02:45:47;;;;;;;14.45;9.68;;;14.70;99.90;;;;;;5131101;27;20554;-72
2022/04/20 02:48:15;;;;;;;13.00;10.15;;;14.60;99.90;;;;;;5133369;27;20023;-72
2022/04/20 02:50:40;;;;;;;17.25;10.70;;;14.60;99.90;;;;;;5120619;27;20050;-72
2022/04/20 02:53:06;;;;;;;14.57;10.05;;;14.50;99.90;;;;;;5128556;27;20431;-72
2022/04/20 02:55:32;;;;;;;13.50;9.90;;;14.70;99.90;;;;;;5133170;27;20078;-72
2022/04/20 02:57:58;;;;;;;13.80;9.45;;;14.80;99.90;;;;;;5126228;27;20031;-72
2022/04/20 03:00:24;;;;;;;14.07;9.40;;;14.80;99.90;;;;;;5119058;27;20405;-73
2022/04/20 03:02:50;;;;;;;13.70;9.35;;;14.80;99.90;;;;;;5133397;27;20023;-72
2022/04/20 03:05:16;;;;;;;14.65;8.68;;;14.90;99.90;;;;;;5132668;27;20476;-72
2022/04/20 03:07:41;;;;;;;15.07;9.52;;;14.80;99.90;;;;;;5132514;27;20019;-72
2022/04/20 03:10:07;;;;;;;14.60;9.52;;;14.80;99.90;;;;;;5133084;27;20515;-72
2022/04/20 03:12:33;;;;;;;14.00;9.25;;;14.90;99.90;;;;;;5115412;27;20039;-72
2022/04/20 03:14:59;;;;;;;13.52;9.68;;;14.90;99.90;;;;;;5133274;27;20027;-72
2022/04/20 03:17:25;;;;;;;15.52;10.20;;;14.90;99.90;;;;;;5132677;27;20024;-72
2022/04/20 03:19:51;;;;;;;13.80;10.43;;;14.90;99.90;;;;;;5132331;27;20051;-72
2022/04/20 03:22:17;;;;;;;17.75;10.23;;;14.90;99.90;;;;;;5132380;27;20518;-73
2022/04/20 03:24:46;;;;;;;18.67;11.13;;;14.90;99.90;;;;;;5132710;27;20481;-72
2022/04/20 03:27:12;;;;;;;16.13;10.20;;;14.80;99.90;;;;;;5128878;27;20037;-72
2022/04/20 03:29:38;;;;;;;15.30;10.07;;;14.80;99.90;;;;;;5120909;27;20553;-72
2022/04/20 03:32:09;;;;;;;14.30;10.50;;;14.90;99.90;;;;;;5126967;27;20022;-72
2022/04/20 03:34:35;;;;;;;15.88;10.82;;;14.90;99.90;;;;;;5132706;27;20035;-72
2022/04/20 03:37:01;;;;;;;17.08;10.57;;;14.80;99.90;;;;;;5132076;27;20576;-72
2022/04/20 03:39:27;;;;;;;13.82;10.27;;;14.80;99.90;;;;;;5131940;27;20452;-72
2022/04/20 03:41:53;;;;;;;18.55;11.05;;;14.80;99.90;;;;;;5116947;27;20024;-72
2022/04/20 03:44:19;;;;;;;17.20;10.80;;;14.80;99.90;;;;;;5129116;27;20035;-72
2022/04/20 03:46:45;;;;;;;16.33;11.13;;;14.80;99.90;;;;;;5131790;27;20023;-72
2022/04/20 03:49:11;;;;;;;19.40;12.10;;;14.70;99.90;;;;;;5132125;27;20041;-72
2022/04/20 03:51:37;;;;;;;14.75;11.43;;;14.60;99.90;;;;;;5115308;27;20015;-72
2022/04/20 03:54:03;;;;;;;17.15;11.25;;;14.70;99.90;;;;;;5132815;27;20031;-72
2022/04/20 03:57:03;;;;;;;16.98;11.57;;;14.70;99.90;;;;;;5131349;27;20397;-72
2022/04/20 03:59:14;;;;;;;18.83;11.07;;;14.70;99.90;;;;;;5126438;27;20140;-72
2022/04/20 04:01:40;;;;;;;17.92;11.13;;;14.70;99.90;;;;;;5123508;27;20023;-72
2022/04/20 04:04:06;;;;;;;19.83;11.60;;;14.80;99.90;;;;;;5131846;27;20057;-72
2022/04/20 04:06:31;;;;;;;16.23;11.00;;;14.70;99.90;;;;;;5131960;27;20030;-72
2022/04/20 04:08:57;;;;;;;17.48;11.10;;;14.70;99.90;;;;;;5132064;27;20088;-72
2022/04/20 04:11:22;;;;;;;17.23;9.23;;;14.80;99.90;;;;;;5131440;28;20016;-72
2022/04/20 04:13:48;;;;;;;18.58;10.38;;;14.70;99.90;;;;;;5131646;28;20493;-72
2022/04/20 04:16:17;;;;;;;14.93;9.93;;;14.80;99.90;;;;;;5131909;28;20111;-72
2022/04/20 04:18:42;;;;;;;16.92;9.93;;;14.90;99.90;;;;;;5115300;28;20046;-72
2022/04/20 04:21:08;;;;;;;14.43;9.30;;;14.90;99.90;;;;;;5132273;28;20389;-72
2022/04/20 04:23:34;;;;;;;15.18;9.02;;;14.80;99.90;;;;;;5131262;28;20027;-73
2022/04/20 04:25:59;;;;;;;18.40;10.15;;;14.80;99.90;;;;;;5131068;27;20038;-72
2022/04/20 04:28:25;;;;;;;16.23;10.00;;;14.90;99.90;;;;;;5130148;28;20023;-72
2022/04/20 04:30:51;;;;;;;17.27;9.57;;;14.90;99.90;;;;;;5114540;28;20035;-72
2022/04/20 04:33:17;;;;;;;15.77;9.23;;;14.80;99.90;;;;;;5132125;27;20569;-72
2022/04/20 04:35:42;;;;;;;17.08;10.32;;;14.80;99.90;;;;;;5131721;28;20023;-72
2022/04/20 04:38:08;;;;;;;14.55;10.02;;;14.80;99.90;;;;;;5119775;28;20088;-72
2022/04/20 04:40:34;;;;;;;14.25;9.15;;;14.70;99.90;;;;;;5122136;28;20019;-72
2022/04/20 04:43:00;;;;;;;15.93;9.05;;;14.70;99.90;;;;;;5131756;28;20031;-72
2022/04/20 04:50:53;;;;;;;18.05;9.38;;;14.70;99.90;;;;;;5116693;28;20089;-72
2022/04/20 04:53:19;;;;;;;14.20;8.52;;;14.60;99.90;;;;;;5132545;27;20027;-74
2022/04/20 04:55:45;;;;;;;14.10;8.45;;;14.60;99.90;;;;;;5134776;27;20118;-72
2022/04/20 04:58:10;;;;;;;16.23;8.70;;;14.60;99.90;;;;;;5135675;27;20098;-72
2022/04/20 05:00:36;;;;;;;12.35;7.07;;;14.70;99.90;;;;;;5121647;27;20385;-72
2022/04/20 05:03:02;;;;;;;14.30;7.68;;;14.50;99.90;;;;;;5119434;27;20024;-72
2022/04/20 05:05:28;;;;;;;15.13;7.30;;;14.60;99.90;;;;;;5133435;27;20382;-73
2022/04/20 05:07:54;;;;;;;15.20;7.35;;;14.70;99.90;;;;;;5129507;27;20031;-73
2022/04/20 05:10:23;;;;;;;13.05;6.72;;;14.70;99.90;;;;;;5124113;27;20066;-72
2022/04/20 05:12:48;;;;;;;11.48;6.50;;;14.70;99.90;;;;;;5135078;27;20027;-73
2022/04/20 05:15:15;;;;;;;11.50;6.60;;;14.80;99.90;;;;;;5135431;27;20498;-72
2022/04/20 05:17:40;;;;;;;10.55;6.25;;;14.80;99.90;;;;;;5135143;27;20011;-73
2022/04/20 05:20:07;;;;;;;14.65;6.85;;;14.60;99.90;;;;;;5134888;27;20073;-74
2022/04/20 05:22:32;;;;;;;14.00;6.68;;;14.50;99.90;;;;;;5134407;27;20019;-73
2022/04/20 05:24:58;;;;;;;10.05;6.55;;;14.50;99.90;;;;;;5134763;27;20545;-73
2022/04/20 05:27:24;;;;;;;12.35;6.53;;;14.60;99.90;;;;;;5135260;27;20105;-74
2022/04/20 05:29:50;;;;;;;14.38;6.00;;;14.70;99.90;;;;;;5134919;27;20034;-73
2022/04/20 05:32:15;;;;;;;13.05;6.38;;;14.80;99.90;;;;;;5134702;27;20500;-74
2022/04/20 05:34:41;;;;;;;13.50;6.13;;;14.80;99.90;;;;;;5131837;27;20034;-74
2022/04/20 05:42:36;;;;;;;13.15;6.05;;;14.80;99.90;;;;;;5134596;27;20065;-74
2022/04/20 05:45:02;;;;;;;13.30;5.93;;;14.80;99.90;;;;;;5134820;27;20054;-74
2022/04/20 05:47:29;;;;;;;11.40;5.72;;;14.80;99.90;;;;;;5125711;27;20056;-74
2022/04/20 05:49:55;;;;;;;15.15;5.93;;;14.80;99.90;;;;;;5126934;27;20050;-74
2022/04/20 05:52:21;;;;;;;12.82;5.28;;;15.00;99.90;;;;;;5122747;27;20008;-74
2022/04/20 05:54:46;;;;;;;11.32;5.10;;;14.90;99.90;;;;;;5124472;27;20027;-71
2022/04/20 05:57:12;;;;;;;13.98;5.18;;;14.90;99.90;;;;;;5134128;27;20116;-72
2022/04/20 05:59:38;;;;;;;17.75;6.03;;;15.00;99.90;;;;;;5129752;27;20110;-72
2022/04/20 06:02:04;;;;;;;10.82;5.13;;;15.10;99.90;;;;;;5131332;27;20035;-72
2022/04/20 06:04:30;;;;;;;13.40;5.57;;;15.20;99.90;;;;;;5123003;27;20594;-71
2022/04/20 06:06:56;;;;;;;15.75;5.00;;;15.30;99.90;;;;;;5128820;27;20024;-72
2022/04/20 06:09:22;;;;;;;15.35;5.82;;;15.40;99.90;;;;;;5133929;27;20034;-72
2022/04/20 06:11:48;;;;;;;15.73;5.30;;;15.20;99.90;;;;;;5117991;27;20023;-72
2022/04/20 06:14:16;;;;;;;11.23;5.55;;;15.20;99.90;;;;;;5128513;27;20031;-72
2022/04/20 06:16:42;;;;;;;12.20;5.53;;;15.20;99.90;;;;;;5121881;27;20023;-72
2022/04/20 06:19:08;;;;;;;10.30;5.50;;;15.20;99.90;;;;;;5120765;27;20039;-72
2022/04/20 06:21:34;;;;;;;13.25;5.50;;;15.20;99.90;;;;;;5119438;27;20047;-72
2022/04/20 06:24:00;;;;;;;13.63;6.03;;;15.10;99.90;;;;;;5134157;27;20553;-72
2022/04/20 06:26:26;;;;;;;14.30;5.65;;;15.00;99.90;;;;;;5123706;27;20081;-72
2022/04/20 06:28:52;;;;;;;9.23;5.00;;;15.00;99.90;;;;;;5126750;27;20039;-72
2022/04/20 06:31:17;;;;;;;13.85;5.90;;;15.00;99.90;;;;;;5133610;27;20817;-72
2022/04/20 06:33:43;;;;;;;11.38;5.28;;;15.00;99.90;;;;;;5121684;27;20026;-72
2022/04/20 06:36:09;;;;;;;13.00;5.45;;;15.00;99.90;;;;;;5133528;27;20045;-72
2022/04/20 06:38:35;;;;;;;13.48;4.82;;;15.00;99.90;;;;;;5133054;27;20549;-72
2022/04/20 06:41:01;;;;;;;9.70;4.93;;;15.10;99.90;;;;;;5122818;27;20040;-72
2022/04/20 06:43:26;;;;;;;16.25;5.65;;;15.20;99.90;;;;;;5123119;27;20050;-72
2022/04/20 06:45:52;;;;;;;12.88;5.50;;;15.10;99.90;;;;;;5133494;27;20043;-78
2022/04/20 06:48:18;;;;;;;17.08;6.05;;;15.10;99.90;;;;;;5132943;27;20034;-72
2022/04/20 06:50:44;;;;;;;14.07;5.93;;;15.10;99.90;;;;;;5133005;27;20019;-72
2022/04/20 06:58:41;;;;;;;15.25;6.15;;;15.20;99.90;;;;;;5133095;27;20076;-71
2022/04/20 07:01:08;;;;;;;12.95;6.10;;;15.20;99.90;;;;;;5132766;27;20504;-71
2022/04/20 07:03:40;;;;;;;15.05;6.50;;;15.40;99.90;;;;;;5132911;27;20039;-71
2022/04/20 07:06:06;;;;;;;12.05;6.22;;;15.30;99.90;;;;;;5118080;27;20020;-72
2022/04/20 07:08:33;;;;;;;11.93;6.18;;;15.30;99.90;;;;;;5131514;27;20026;-72
2022/04/20 07:10:59;;;;;;;15.73;6.70;;;15.30;99.90;;;;;;5131155;27;20046;-72
2022/04/20 07:13:25;;;;;;;14.10;7.22;;;15.40;99.90;;;;;;5124847;27;20016;-72
2022/04/20 07:15:51;;;;;;;14.93;6.57;;;15.50;99.90;;;;;;5131825;27;20020;-74
2022/04/20 07:18:17;;;;;;;14.18;5.95;;;15.60;99.90;;;;;;5121262;27;20031;-72
2022/04/20 07:20:43;;;;;;;15.48;6.43;;;15.60;99.90;;;;;;5120118;27;20031;-72
2022/04/20 07:23:10;;;;;;;15.38;6.78;;;15.70;99.90;;;;;;5128187;27;20027;-72
2022/04/20 07:25:36;;;;;;;14.23;7.03;;;15.80;99.90;;;;;;5131345;27;20515;-72
2022/04/20 07:28:03;;;;;;;17.45;7.65;;;15.80;99.90;;;;;;5127691;27;20031;-71
2022/04/20 07:30:29;;;;;;;19.25;7.75;;;15.70;99.90;;;;;;5130670;27;20043;-72
2022/04/20 07:32:55;;;;;;;21.63;8.68;;;15.90;99.90;;;;;;5130721;27;20015;-72
2022/04/20 07:35:21;;;;;;;16.30;8.00;;;16.00;99.90;;;;;;5129049;27;20030;-72
2022/04/20 07:37:46;;;;;;;15.25;9.95;;;16.20;99.90;;;;;;5128881;27;20011;-72
2022/04/20 07:40:14;;;;;;;23.13;12.27;;;16.40;99.90;;;;;;5129701;27;20485;-72
2022/04/20 07:42:39;;;;;;;25.05;12.77;;;16.30;99.90;;;;;;5129780;27;20030;-72
2022/04/20 07:45:06;;;;;;;20.05;13.57;;;16.40;99.90;;;;;;5132233;27;20019;-72
2022/04/20 07:47:32;;;;;;;20.88;13.75;;;16.40;99.90;;;;;;5128226;27;20024;-72
2022/04/20 07:52:43;;;;;;;;;;;16.50;99.90;;;;;;5129326;27;20038;-72
2022/04/20 07:55:23;;;;;;;24.38;14.98;;;16.40;99.90;;;;;;5128262;27;19913;-76
2022/04/20 07:57:51;;;;;;;23.75;14.35;;;16.50;99.90;;;;;;5113014;27;20036;-76
2022/04/20 08:00:18;;;;;;;20.30;15.18;;;16.40;99.90;;;;;;5129766;27;20031;-76
2022/04/20 08:02:47;;;;;;;21.17;15.88;;;16.40;99.90;;;;;;5129265;27;20100;-76
2022/04/20 08:05:17;;;;;;;24.25;15.02;;;16.60;99.90;;;;;;5128346;27;20103;-77
2022/04/20 08:07:46;;;;;;;20.35;14.65;;;16.50;99.90;;;;;;5131481;27;20023;-77
2022/04/20 08:10:15;;;;;;;20.88;14.38;;;16.50;99.90;;;;;;5131742;27;20024;-76
2022/04/20 08:12:45;;;;;;;17.60;13.25;;;16.50;99.90;;;;;;5131184;27;20047;-76
2022/04/20 08:15:11;;;;;;;17.88;12.82;;;16.50;99.90;;;;;;5128127;28;20025;-76
2022/04/20 08:17:38;;;;;;;18.15;13.68;;;16.50;99.90;;;;;;5130999;28;20038;-75
2022/04/20 08:20:06;;;;;;;17.13;12.93;;;16.40;99.90;;;;;;5131354;28;20409;-76
2022/04/20 08:22:32;;;;;;;18.20;12.55;;;16.40;99.90;;;;;;5131504;28;20027;-76
2022/04/20 08:24:59;;;;;;;16.67;12.57;;;16.50;99.90;;;;;;5132575;27;20032;-76
2022/04/20 08:27:25;;;;;;;19.27;13.20;;;16.60;99.90;;;;;;5136262;27;20015;-76
2022/04/20 08:29:51;;;;;;;20.52;12.35;;;16.50;99.90;;;;;;5136250;27;20038;-76
2022/04/20 08:32:18;;;;;;;16.42;12.15;;;16.70;99.90;;;;;;5135417;27;20035;-76
2022/04/20 08:34:45;;;;;;;15.65;11.75;;;17.00;99.90;;;;;;5136156;27;20034;-76
2022/04/20 08:37:11;;;;;;;18.10;11.80;;;17.10;99.90;;;;;;5135896;27;20042;-76
2022/04/20 08:39:41;;;;;;;17.67;12.43;;;17.30;99.90;;;;;;5136225;27;20034;-76
2022/04/20 08:42:12;;;;;;;16.00;11.48;;;17.50;99.90;;;;;;5136277;27;20035;-77
2022/04/20 08:44:42;;;;;;;17.77;10.77;;;17.30;99.90;;;;;;5135458;27;20059;-76
2022/04/20 08:47:12;;;;;;;16.40;11.55;;;17.40;99.90;;;;;;5135243;27;20031;-76
2022/04/20 08:49:42;;;;;;;14.32;11.75;;;17.30;99.90;;;;;;5135628;27;20043;-77
2022/04/20 08:54:54;;;;;;;;;;;17.10;99.90;;;;;;5121030;27;20115;-76
2022/04/20 08:57:20;;;;;;;17.17;11.80;;;17.10;99.90;;;;;;5135638;27;19903;-76
2022/04/20 08:59:50;;;;;;;17.52;12.82;;;17.10;99.90;;;;;;5135958;27;20557;-76
2022/04/20 09:02:20;;;;;;;19.42;12.98;;;17.30;99.90;;;;;;5126718;27;20027;-76
2022/04/20 09:04:46;;;;;;;17.95;13.10;;;17.40;99.90;;;;;;5122612;27;20069;-76
2022/04/20 09:07:15;;;;;;;19.52;12.93;;;17.60;99.90;;;;;;5122822;27;20023;-76
2022/04/20 09:09:41;;;;;;;17.42;12.73;;;17.80;99.90;;;;;;5134942;27;20064;-76
2022/04/20 09:12:14;;;;;;;20.63;12.85;;;18.00;99.90;;;;;;5135650;27;20023;-76
2022/04/20 09:14:43;;;;;;;14.07;11.90;;;18.20;99.90;;;;;;5134821;27;20112;-76
2022/04/20 09:17:15;;;;;;;15.90;12.07;;;18.10;99.90;;;;;;5134892;27;20028;-76
2022/04/20 09:19:42;;;;;;;15.35;11.35;;;18.10;99.90;;;;;;5135096;27;20043;-76
2022/04/20 09:22:21;;;;;;;17.20;12.10;;;18.10;99.90;;;;;;5135010;27;20015;-76
2022/04/20 09:25:11;;;;;;;18.00;12.25;;;18.30;99.90;;;;;;5116979;27;20033;-76
2022/04/20 09:27:42;;;;;;;16.33;12.73;;;18.20;99.90;;;;;;5135303;27;20131;-76
2022/04/20 09:30:17;;;;;;;19.38;13.00;;;18.20;99.90;;;;;;5134873;27;20038;-76
2022/04/20 09:32:45;;;;;;;16.75;11.57;;;18.10;99.90;;;;;;5122449;27;20405;-76
2022/04/20 09:35:12;;;;;;;18.83;11.43;;;18.10;99.90;;;;;;5131028;27;20122;-76
2022/04/20 09:37:40;;;;;;;16.83;11.52;;;18.20;99.90;;;;;;5133477;27;20031;-76
2022/04/20 09:40:11;;;;;;;15.77;10.52;;;18.30;99.90;;;;;;5134486;27;20083;-77
2022/04/20 09:43:04;;;;;;;15.63;10.57;;;18.20;99.90;;;;;;5118395;27;20043;-76
2022/04/20 09:45:30;;;;;;;15.45;11.45;;;18.10;99.90;;;;;;5132664;27;20580;-76
2022/04/20 09:50:46;;;;;;;15.57;9.13;;;18.30;99.90;;;;;;5134457;27;20164;-77
2022/04/20 09:53:14;;;;;;;15.27;9.48;;;18.40;99.90;;;;;;5134217;27;20034;-76
2022/04/20 09:55:41;;;;;;;15.63;9.55;;;18.40;99.90;;;;;;5134117;27;20093;-77
2022/04/20 09:58:13;;;;;;;14.60;9.63;;;18.30;99.90;;;;;;5134050;27;20103;-76
2022/04/20 10:00:48;;;;;;;16.75;10.27;;;18.30;99.90;;;;;;5115764;27;20023;-76
2022/04/20 10:03:24;;;;;;;13.68;10.77;;;18.30;99.90;;;;;;5131068;27;20027;-76
2022/04/20 10:05:51;;;;;;;13.63;11.07;;;18.30;99.90;;;;;;5134047;27;20031;-76
2022/04/20 10:08:17;;;;;;;13.50;9.80;;;18.20;99.90;;;;;;5109944;27;20027;-76
2022/04/20 10:10:44;;;;;;;14.88;11.05;;;18.20;99.90;;;;;;5133870;27;20031;-77
2022/04/20 10:13:10;;;;;;;16.02;10.38;;;18.10;99.90;;;;;;5128964;27;20023;-77
2022/04/20 10:18:22;;;;;;;13.55;10.70;;;18.00;99.90;;;;;;5131073;27;20417;-76
2022/04/20 10:20:50;;;;;;;14.20;10.05;;;18.00;99.90;;;;;;5133388;27;20039;-76
2022/04/20 10:23:19;;;;;;;15.18;10.00;;;17.90;99.90;;;;;;5134091;27;20031;-76
2022/04/20 10:25:46;;;;;;;10.82;8.70;;;17.80;99.90;;;;;;5133777;27;20049;-76
2022/04/20 10:28:23;;;;;;;15.23;10.77;;;17.60;99.90;;;;;;5133248;27;20023;-76
2022/04/20 10:31:06;;;;;;;11.43;8.77;;;17.60;99.90;;;;;;5118043;27;20107;-76
2022/04/20 10:33:34;;;;;;;13.63;8.65;;;17.50;99.90;;;;;;5133504;27;20022;-76
2022/04/20 10:36:04;;;;;;;12.63;8.63;;;17.50;99.90;;;;;;5134212;27;20033;-76
2022/04/20 10:38:32;;;;;;;13.02;8.38;;;17.30;99.90;;;;;;5133223;27;20035;-77
2022/04/20 10:41:07;;;;;;;16.42;9.65;;;17.30;99.90;;;;;;5133625;27;20039;-76
2022/04/20 10:43:35;;;;;;;13.18;9.75;;;17.30;99.90;;;;;;5132638;27;20023;-76
2022/04/20 10:46:12;;;;;;;13.73;8.38;;;17.30;99.90;;;;;;5133370;27;20538;-77
2022/04/20 10:48:46;;;;;;;11.55;9.07;;;17.40;99.90;;;;;;5132138;27;20034;-72
2022/04/20 10:51:16;;;;;;;12.80;9.00;;;17.40;99.90;;;;;;5129404;27;20046;-72
2022/04/20 10:53:48;;;;;;;14.45;9.93;;;17.50;99.90;;;;;;5133733;27;20047;-72
2022/04/20 10:56:18;;;;;;;13.40;9.52;;;17.50;99.90;;;;;;5132388;27;20020;-72
2022/04/20 10:59:07;;;;;;;17.50;10.50;;;17.50;99.90;;;;;;5125698;27;20042;-72
2022/04/20 11:01:58;;;;;;;16.92;10.18;;;17.50;99.90;;;;;;5133003;27;20023;-72
2022/04/20 11:04:39;;;;;;;15.77;10.13;;;17.60;99.90;;;;;;5132727;27;20449;-72
2022/04/20 11:07:07;;;;;;;12.40;9.43;;;17.60;99.90;;;;;;5132902;27;20397;-69
2022/04/20 11:09:42;;;;;;;12.43;9.63;;;17.50;99.90;;;;;;5114570;27;20509;-69
2022/04/20 11:21:07;;;;;;;;;;;17.40;99.90;;;;;;5118056;27;20050;-68
2022/04/20 11:23:50;;;;;;;19.33;12.77;;;17.50;99.90;;;;;;5131259;27;19907;-68
2022/04/20 11:26:22;;;;;;;18.17;13.18;;;17.60;99.90;;;;;;5132088;27;20027;-71
2022/04/20 11:28:48;;;;;;;18.20;12.38;;;17.60;99.90;;;;;;5132332;27;20126;-69
2022/04/20 11:31:14;;;;;;;16.90;12.35;;;17.70;99.90;;;;;;5132447;27;20075;-69
2022/04/20 11:33:40;;;;;;;19.05;13.10;;;17.70;99.90;;;;;;5132410;27;20019;-70
2022/04/20 11:36:07;;;;;;;18.58;13.07;;;17.80;99.90;;;;;;5123859;27;20038;-70
2022/04/20 11:38:43;;;;;;;17.13;13.30;;;17.80;99.90;;;;;;5126393;27;20034;-70
2022/04/20 11:41:16;;;;;;;20.23;13.75;;;17.80;99.90;;;;;;5131671;27;20035;-69
2022/04/20 11:43:42;;;;;;;19.02;13.70;;;17.70;99.90;;;;;;5132763;27;20493;-70
2022/04/20 11:46:08;;;;;;;17.63;13.13;;;17.70;99.90;;;;;;5132301;27;20072;-69
2022/04/20 11:48:38;;;;;;;20.00;13.63;;;17.70;99.90;;;;;;5131884;27;20554;-69
2022/04/20 11:51:08;;;;;;;17.65;13.10;;;17.70;99.90;;;;;;5116351;27;20454;-69
2022/04/20 11:53:35;;;;;;;17.70;13.40;;;17.70;99.90;;;;;;5130911;27;20055;-69
2022/04/20 11:56:02;;;;;;;18.10;13.68;;;17.70;99.90;;;;;;5132113;27;20103;-69
2022/04/20 11:58:28;;;;;;;18.98;13.85;;;17.70;99.90;;;;;;5132031;27;20034;-69
2022/04/20 12:01:21;;;;;;;18.88;13.95;;;17.70;99.90;;;;;;5131811;27;20389;-69
2022/04/20 12:03:50;;;;;;;18.20;14.32;;;17.70;99.90;;;;;;5112067;27;20119;-69
2022/04/20 12:06:17;;;;;;;18.45;14.82;;;17.80;99.90;;;;;;5110270;28;20028;-70
2022/04/20 12:08:45;;;;;;;21.38;14.88;;;17.80;99.90;;;;;;5127209;27;20603;-70
2022/04/20 12:11:11;;;;;;;18.77;14.60;;;17.80;99.90;;;;;;5128034;27;20046;-69
2022/04/20 12:13:39;;;;;;;18.17;14.63;;;17.90;99.90;;;;;;5127180;27;20508;-69
2022/04/20 12:16:11;;;;;;;19.77;14.90;;;17.90;99.90;;;;;;5127472;28;20423;-69
2022/04/20 12:18:40;;;;;;;18.92;15.10;;;18.00;99.90;;;;;;5110518;27;20509;-70
2022/04/20 12:21:45;;;;;;;18.83;15.13;;;17.90;99.90;;;;;;5111421;28;20047;-69
2022/04/20 12:24:20;;;;;;;22.98;16.92;;;18.10;99.90;;;;;;5111648;28;20032;-70
2022/04/20 12:26:47;;;;;;;19.38;16.30;;;18.00;99.90;;;;;;5115355;28;20016;-70
2022/04/20 12:29:14;;;;;;;17.70;15.38;;;18.10;99.90;;;;;;5127161;27;20069;-71
2022/04/20 12:31:43;;;;;;;22.80;16.05;;;18.30;99.90;;;;;;5123214;28;20500;-70
2022/04/20 12:34:10;;;;;;;20.45;15.35;;;18.40;99.90;;;;;;5127345;28;20047;-70
2022/04/20 12:36:59;;;;;;;20.10;15.52;;;18.50;99.90;;;;;;5126903;27;20503;-70
2022/04/20 12:39:39;;;;;;;22.83;16.23;;;18.60;99.90;;;;;;5124844;28;20119;-72
2022/04/20 12:42:12;;;;;;;20.70;16.15;;;18.50;99.90;;;;;;5111909;28;20035;-70
2022/04/20 12:44:53;;;;;;;20.48;16.15;;;18.30;99.90;;;;;;5126621;28;20033;-70
2022/04/20 12:47:22;;;;;;;19.67;16.92;;;18.10;99.90;;;;;;5126972;28;20038;-70
2022/04/20 12:50:10;;;;;;;19.98;17.27;;;18.00;99.90;;;;;;5127211;28;20626;-70
2022/04/20 12:52:37;;;;;;;20.65;16.80;;;18.00;99.90;;;;;;5126551;27;20023;-70
2022/04/20 12:55:10;;;;;;;19.25;16.65;;;17.90;99.90;;;;;;5126493;28;20059;-70
2022/04/20 13:03:24;;;;;;;24.58;16.83;;;17.70;99.90;;;;;;5124259;28;20034;-70
2022/04/20 13:05:49;;;;;;;19.63;16.17;;;17.30;99.90;;;;;;5126125;28;20031;-70
2022/04/20 13:08:15;;;;;;;24.90;16.85;;;17.20;99.90;;;;;;5126023;28;20027;-70
2022/04/20 13:10:46;;;;;;;25.00;16.95;;;17.10;99.90;;;;;;5127308;28;20028;-71
2022/04/20 13:13:12;;;;;;;24.00;17.33;;;17.00;99.90;;;;;;5130070;27;20038;-70
2022/04/20 13:15:38;;;;;;;22.17;17.67;;;16.80;99.90;;;;;;5130004;27;20409;-70
2022/04/20 13:18:04;;;;;;;19.77;15.57;;;16.60;99.90;;;;;;5114447;27;20074;-69
2022/04/20 13:20:31;;;;;;;22.15;16.00;;;16.30;99.90;;;;;;5122849;27;20027;-69
2022/04/20 13:23:00;;;;;;;18.70;14.18;;;16.20;99.90;;;;;;5115853;27;20424;-70